LERS/REU METAR and TAF weather

Enter ICAO airport designator
Station Type Date Time Source
LERS METAR 2019/10/15 03:30 UTC NOAA

LERS 150330Z AUTO 28015KT 240V330 9999 NCD 16/06 Q1011


Station Type Date Time Source
LERS Decoded METAR 2019/10/15 03:30 UTC NOAA

Reus / Aeropuerto, Spain (LERS) 41-09N 001-10E 76M
Oct 14, 2019 - 11:30 PM EDT / 2019.10.15 0330 UTC
Wind: from the W (280 degrees) at 17 MPH (15 KT) (direction variable):0
Visibility: greater than 7 mile(s):0
Temperature: 60 F (16 C)
Dew Point: 42 F (6 C)
Relative Humidity: 51%
Pressure (altimeter): 29.85 in. Hg (1011 hPa)
ob: LERS 150330Z AUTO 28015KT 240V330 9999 NCD 16/06 Q1011
cycle: 3

Station Type Date Time Source
LERS TAF 2019/10/15 03:30 UTC NOAA

TAF LERS 150200Z 1503/1603 30015KT 9999 SCT030 TX23/1513Z TN12/1506Z PROB40
TEMPO 1503/1515 30025G35KT
BECMG 1516/1518 VRB03KT

Example: see airport list